createdAt,value
2022-10-05T00:01:23.845Z,81.34
2022-10-05T00:03:52.810Z,81.52
2022-10-05T00:06:20.481Z,81.90
2022-10-05T00:08:49.662Z,81.75
2022-10-05T00:11:18.693Z,81.63
2022-10-05T00:13:47.049Z,81.38
2022-10-05T00:16:17.515Z,81.54
2022-10-05T00:18:47.919Z,81.40
2022-10-05T00:21:23.765Z,81.34
2022-10-05T00:23:53.387Z,81.42
2022-10-05T00:26:22.921Z,82.87
2022-10-05T00:28:50.885Z,81.86
2022-10-05T00:31:21.166Z,81.71
2022-10-05T00:33:49.540Z,81.75
2022-10-05T00:36:17.318Z,81.90
2022-10-05T00:38:45.319Z,82.61
2022-10-05T00:41:18.712Z,82.06
2022-10-05T00:44:13.554Z,82.06
2022-10-05T00:46:51.185Z,83.61
2022-10-05T00:49:27.105Z,83.21
2022-10-05T00:52:04.526Z,82.73
2022-10-05T00:54:35.588Z,83.33
2022-10-05T00:57:18.672Z,83.17
2022-10-05T00:59:52.604Z,83.44
2022-10-05T01:02:26.861Z,83.65
2022-10-05T01:05:00.022Z,83.52
2022-10-05T01:07:35.176Z,83.94
2022-10-05T01:10:11.406Z,83.81
2022-10-05T01:12:48.174Z,83.51
2022-10-05T01:15:18.008Z,83.89
2022-10-05T01:17:50.960Z,83.60
2022-10-05T01:20:25.504Z,83.69
2022-10-05T01:23:05.304Z,83.20
2022-10-05T01:25:39.324Z,83.58
2022-10-05T01:28:11.412Z,83.65
2022-10-05T01:30:44.421Z,83.17
2022-10-05T01:33:19.210Z,83.69
2022-10-05T01:35:53.585Z,84.23
2022-10-05T01:38:29.387Z,84.23
2022-10-05T01:41:05.005Z,84.23
2022-10-05T01:43:40.500Z,84.70
2022-10-05T01:46:19.478Z,85.20
2022-10-05T01:48:57.872Z,84.88
2022-10-05T01:51:31.995Z,84.47
2022-10-05T01:54:05.841Z,84.56
2022-10-05T01:56:40.735Z,84.92
2022-10-05T01:59:18.813Z,84.58
2022-10-05T02:01:50.982Z,84.58
2022-10-05T02:04:49.699Z,84.87
2022-10-05T02:07:14.974Z,84.54
2022-10-05T02:09:47.443Z,84.29
2022-10-05T02:12:18.532Z,84.43
2022-10-05T02:14:50.205Z,85.90
2022-10-05T02:17:19.237Z,85.04
2022-10-05T02:19:49.801Z,85.13
2022-10-05T02:22:19.156Z,85.69
2022-10-05T02:24:57.320Z,86.01
2022-10-05T02:27:28.149Z,85.58
2022-10-05T02:30:00.695Z,85.75
2022-10-05T02:32:35.316Z,85.78
2022-10-05T02:35:07.933Z,85.96
2022-10-05T02:37:43.540Z,86.45
2022-10-05T02:40:19.906Z,86.02
2022-10-05T02:42:53.203Z,87.01
2022-10-05T02:45:26.461Z,86.53
2022-10-05T02:48:00.649Z,86.21
2022-10-05T02:50:34.315Z,85.78
2022-10-05T02:53:14.825Z,85.91
2022-10-05T02:55:48.084Z,85.98
2022-10-05T02:58:17.805Z,85.75
2022-10-05T03:00:49.389Z,85.74
2022-10-05T03:03:25.278Z,86.09
2022-10-05T03:05:56.258Z,87.01
2022-10-05T03:08:28.558Z,86.71
2022-10-05T03:11:01.068Z,87.57
2022-10-05T03:13:35.501Z,87.23
2022-10-05T03:16:31.226Z,87.10
2022-10-05T03:19:04.152Z,86.60
2022-10-05T03:21:40.741Z,86.85
2022-10-05T03:24:21.000Z,87.25
2022-10-05T03:26:53.409Z,87.17
2022-10-05T03:29:28.137Z,87.06
2022-10-05T03:32:03.507Z,88.38
2022-10-05T03:34:37.132Z,88.27
2022-10-05T03:37:10.762Z,88.36
2022-10-05T03:39:42.428Z,88.11
2022-10-05T03:42:19.720Z,88.25
2022-10-05T03:44:50.578Z,89.05
2022-10-05T03:47:30.953Z,88.44
2022-10-05T03:50:07.427Z,88.87
2022-10-05T03:52:38.087Z,88.80
2022-10-05T03:55:13.679Z,89.21
2022-10-05T03:57:42.175Z,88.70
2022-10-05T04:00:15.097Z,88.40
2022-10-05T04:02:46.797Z,88.62
2022-10-05T04:05:17.027Z,89.15
2022-10-05T04:07:47.357Z,89.61
2022-10-05T04:10:18.881Z,87.98
2022-10-05T04:12:50.279Z,88.81
2022-10-05T04:15:22.622Z,88.75
2022-10-05T04:17:53.097Z,88.55
2022-10-05T04:20:23.730Z,89.01
2022-10-05T04:22:55.384Z,89.94
2022-10-05T04:25:25.913Z,88.59
2022-10-05T04:27:56.223Z,89.83
2022-10-05T04:30:23.879Z,89.40
2022-10-05T04:32:54.455Z,89.38
2022-10-05T04:35:39.101Z,89.05
2022-10-05T04:38:17.972Z,89.56
2022-10-05T04:40:54.020Z,88.97
2022-10-05T04:43:29.524Z,90.00
2022-10-05T04:46:11.510Z,89.45
2022-10-05T04:49:05.976Z,89.73
2022-10-05T04:51:38.665Z,89.97
2022-10-05T04:54:15.270Z,89.41
2022-10-05T04:56:47.326Z,89.46
2022-10-05T04:59:29.498Z,89.81
2022-10-05T05:02:06.613Z,89.21
2022-10-05T05:04:52.833Z,90.21
2022-10-05T05:07:32.080Z,90.14
2022-10-05T05:10:18.700Z,89.63
2022-10-05T05:12:52.149Z,90.80
2022-10-05T05:15:27.501Z,90.81
2022-10-05T05:18:07.783Z,90.32
2022-10-05T05:20:45.505Z,90.43
2022-10-05T05:23:19.043Z,90.47
2022-10-05T05:25:51.965Z,90.97
2022-10-05T05:28:25.984Z,90.97
2022-10-05T05:31:01.026Z,90.11
2022-10-05T05:33:34.928Z,90.46
2022-10-05T05:36:28.294Z,90.68
2022-10-05T05:39:05.913Z,89.92
2022-10-05T05:41:38.533Z,90.55
2022-10-05T05:44:16.849Z,90.26
2022-10-05T05:47:04.910Z,90.73
2022-10-05T05:49:51.622Z,90.37
2022-10-05T05:52:24.969Z,91.75
2022-10-05T05:54:57.112Z,91.34
2022-10-05T05:57:29.000Z,91.51
2022-10-05T06:00:07.272Z,91.67
2022-10-05T06:02:40.561Z,90.98
2022-10-05T06:05:25.011Z,91.04
2022-10-05T06:07:54.928Z,91.49
2022-10-05T06:10:28.747Z,91.55
2022-10-05T06:13:01.602Z,91.23
2022-10-05T06:15:34.433Z,90.49
2022-10-05T06:18:04.345Z,90.08
2022-10-05T06:20:37.060Z,90.69
2022-10-05T06:23:15.029Z,91.08
2022-10-05T06:25:50.075Z,91.36
2022-10-05T06:28:17.775Z,91.49
2022-10-05T06:30:51.332Z,91.95
2022-10-05T06:33:26.305Z,93.05
2022-10-05T06:36:04.058Z,92.60
2022-10-05T06:38:48.045Z,92.61
2022-10-05T06:41:20.718Z,92.18
2022-10-05T06:43:53.473Z,93.07
2022-10-05T06:46:23.828Z,93.63
2022-10-05T06:49:04.857Z,93.52
2022-10-05T06:51:37.140Z,93.10
2022-10-05T06:54:10.961Z,93.25
2022-10-05T06:56:42.713Z,93.22
2022-10-05T06:59:15.177Z,94.55
2022-10-05T07:01:51.289Z,94.60
2022-10-05T07:04:37.198Z,95.03
2022-10-05T07:07:11.335Z,94.37
2022-10-05T07:09:47.759Z,94.82
2022-10-05T07:12:43.008Z,95.31
2022-10-05T07:15:30.529Z,95.09
2022-10-05T07:18:13.088Z,94.92
2022-10-05T07:20:49.201Z,95.50
2022-10-05T07:23:28.558Z,95.28
2022-10-05T07:26:03.796Z,95.06
2022-10-05T07:28:36.335Z,94.74
2022-10-05T07:31:07.644Z,94.60
2022-10-05T07:33:39.704Z,94.52
2022-10-05T07:36:31.028Z,94.48
2022-10-05T07:39:09.208Z,93.93
2022-10-05T07:41:43.523Z,94.17
2022-10-05T07:44:16.037Z,93.75
2022-10-05T07:46:52.734Z,94.51
2022-10-05T07:49:26.528Z,93.97
2022-10-05T07:51:57.114Z,94.53
2022-10-05T07:54:26.618Z,94.91
2022-10-05T07:57:00.171Z,95.42
2022-10-05T07:59:32.853Z,95.54
2022-10-05T08:02:06.253Z,95.40
2022-10-05T08:04:41.763Z,95.02
2022-10-05T08:07:14.472Z,95.22
2022-10-05T08:09:45.342Z,94.95
2022-10-05T08:12:33.723Z,95.10
2022-10-05T08:15:05.041Z,95.52
2022-10-05T08:17:45.321Z,95.70
2022-10-05T08:20:41.217Z,95.75
2022-10-05T08:23:18.729Z,95.60
2022-10-05T08:25:51.747Z,95.20
2022-10-05T08:28:24.183Z,95.00
2022-10-05T08:30:57.078Z,95.43
2022-10-05T08:33:26.260Z,95.38
2022-10-05T08:36:03.416Z,95.62
2022-10-05T08:38:33.162Z,95.47
2022-10-05T08:41:25.461Z,95.36
2022-10-05T08:44:27.121Z,95.47
2022-10-05T08:47:16.770Z,94.98
2022-10-05T08:50:12.367Z,94.97
2022-10-05T08:52:55.432Z,95.78
2022-10-05T08:55:38.161Z,96.09
2022-10-05T08:58:28.939Z,95.58
2022-10-05T09:01:04.575Z,95.24
2022-10-05T09:03:48.298Z,95.68
2022-10-05T09:06:23.493Z,94.36
2022-10-05T09:09:10.997Z,94.79
2022-10-05T09:11:40.542Z,95.74
2022-10-05T09:14:21.799Z,95.46
2022-10-05T09:16:57.773Z,94.76
2022-10-05T09:19:36.805Z,96.18
2022-10-05T09:22:15.560Z,94.47
2022-10-05T09:24:54.000Z,95.74
2022-10-05T09:27:32.024Z,95.02
2022-10-05T09:30:30.070Z,94.47
2022-10-05T09:33:25.887Z,94.52
2022-10-05T09:36:17.525Z,93.75
2022-10-05T09:39:25.824Z,93.05
2022-10-05T09:42:08.559Z,93.98
2022-10-05T09:44:59.241Z,93.53
2022-10-05T09:47:48.221Z,93.17
2022-10-05T09:50:46.841Z,93.00
2022-10-05T09:53:38.313Z,93.27
2022-10-05T09:56:21.125Z,93.75
2022-10-05T09:59:18.842Z,92.59
2022-10-05T10:02:09.814Z,92.80
2022-10-05T10:05:05.425Z,92.78
2022-10-05T10:07:51.492Z,92.32
2022-10-05T10:10:37.528Z,92.61
2022-10-05T10:13:28.412Z,92.21
2022-10-05T10:16:34.148Z,92.49
2022-10-05T10:19:12.462Z,93.08
2022-10-05T10:22:07.236Z,92.31
2022-10-05T10:25:02.525Z,91.76
2022-10-05T10:27:40.505Z,91.61
2022-10-05T10:30:39.084Z,91.78
2022-10-05T10:33:21.891Z,91.30
2022-10-05T10:35:55.781Z,92.21
2022-10-05T10:38:41.297Z,90.78
2022-10-05T10:41:56.752Z,90.87
2022-10-05T10:44:52.264Z,90.03
2022-10-05T10:47:49.652Z,90.13
2022-10-05T10:50:33.024Z,90.21
2022-10-05T10:53:09.877Z,89.83
2022-10-05T10:55:48.748Z,89.37
2022-10-05T10:58:39.954Z,89.92
2022-10-05T11:01:28.230Z,90.11
2022-10-05T11:04:15.804Z,89.91
2022-10-05T11:06:54.899Z,89.65
2022-10-05T11:09:41.262Z,89.47
2022-10-05T11:12:35.554Z,88.51
2022-10-05T11:15:25.629Z,88.49
2022-10-05T11:18:09.857Z,89.42
2022-10-05T11:20:58.647Z,89.09
2022-10-05T11:23:39.139Z,89.04
2022-10-05T11:26:22.241Z,89.30
2022-10-05T11:29:13.577Z,88.91
2022-10-05T11:32:10.072Z,89.11
2022-10-05T11:34:53.001Z,88.24
2022-10-05T11:37:42.822Z,87.81
2022-10-05T11:40:34.231Z,88.36
2022-10-05T11:43:32.782Z,87.75
2022-10-05T11:46:09.715Z,86.65
2022-10-05T11:48:46.499Z,85.68
2022-10-05T11:51:38.068Z,86.56
2022-10-05T11:54:22.498Z,87.02
2022-10-05T11:56:54.794Z,86.78
2022-10-05T11:59:29.868Z,86.75
2022-10-05T12:02:04.199Z,86.16
2022-10-05T12:04:37.843Z,85.26
2022-10-05T12:07:16.176Z,85.37
2022-10-05T12:10:17.014Z,85.38
2022-10-05T12:12:57.782Z,85.53
2022-10-05T12:15:28.159Z,85.22
2022-10-05T12:17:58.857Z,84.47
2022-10-05T12:20:29.704Z,85.22
2022-10-05T12:23:00.981Z,84.35
2022-10-05T12:25:32.585Z,84.46
2022-10-05T12:28:04.854Z,83.92
2022-10-05T12:30:50.237Z,86.51
2022-10-05T12:33:21.041Z,85.11
2022-10-05T12:35:52.783Z,84.24
2022-10-05T12:38:28.276Z,84.36
2022-10-05T12:41:04.160Z,83.84
2022-10-05T12:43:37.878Z,83.46
2022-10-05T12:46:10.482Z,83.69
2022-10-05T12:48:49.159Z,83.44
2022-10-05T12:51:21.230Z,84.02
2022-10-05T12:53:57.100Z,84.36
2022-10-05T12:56:34.430Z,84.56
2022-10-05T12:59:07.074Z,83.48
2022-10-05T13:01:41.013Z,83.83
2022-10-05T13:04:21.072Z,84.11
2022-10-05T13:07:05.901Z,83.95
2022-10-05T13:09:41.333Z,83.32
2022-10-05T13:12:16.060Z,83.85
2022-10-05T13:14:55.308Z,83.66
2022-10-05T13:17:26.737Z,83.75
2022-10-05T13:19:58.537Z,84.54
2022-10-05T13:22:30.841Z,85.44
2022-10-05T13:25:10.053Z,85.50
2022-10-05T13:27:43.341Z,84.63
2022-10-05T13:30:14.858Z,83.92
2022-10-05T13:32:47.832Z,84.75
2022-10-05T13:35:40.145Z,84.99
2022-10-05T13:38:19.084Z,84.44
2022-10-05T13:40:53.595Z,84.18
2022-10-05T13:43:29.221Z,83.60
2022-10-05T13:46:02.712Z,84.07
2022-10-05T13:48:52.180Z,84.45
2022-10-05T13:51:22.551Z,84.03
2022-10-05T13:53:55.934Z,84.78
2022-10-05T13:56:30.955Z,84.88
2022-10-05T13:59:07.392Z,84.86
2022-10-05T14:01:42.284Z,85.23
2022-10-05T14:04:17.961Z,84.32
2022-10-05T14:06:45.929Z,84.51
2022-10-05T14:09:15.740Z,84.06
2022-10-05T14:11:51.357Z,84.48
2022-10-05T14:14:26.394Z,84.14
2022-10-05T14:16:55.950Z,84.63
2022-10-05T14:19:26.751Z,83.89
2022-10-05T14:22:00.516Z,83.93
2022-10-05T14:24:43.970Z,84.16
2022-10-05T14:27:21.899Z,84.48
2022-10-05T14:29:56.656Z,84.02
2022-10-05T14:32:26.919Z,83.90
2022-10-05T14:35:06.037Z,83.79
2022-10-05T14:37:44.857Z,83.72
2022-10-05T14:40:28.514Z,83.20
2022-10-05T14:42:58.529Z,83.62
2022-10-05T14:45:29.668Z,83.67
2022-10-05T14:48:10.071Z,83.59
2022-10-05T14:50:52.153Z,83.80
2022-10-05T14:53:21.109Z,83.28
2022-10-05T14:56:17.435Z,83.26
2022-10-05T14:58:56.365Z,83.47
2022-10-05T15:01:27.343Z,83.68
2022-10-05T15:04:07.709Z,83.67
2022-10-05T15:06:38.546Z,84.14
2022-10-05T15:09:23.584Z,83.78
2022-10-05T15:11:53.372Z,84.19
2022-10-05T15:14:25.219Z,84.27
2022-10-05T15:16:54.304Z,83.75
2022-10-05T15:19:25.386Z,83.93
2022-10-05T15:22:20.159Z,84.21
2022-10-05T15:24:58.165Z,84.40
2022-10-05T15:27:34.208Z,84.19
2022-10-05T15:30:09.101Z,84.13
2022-10-05T15:32:44.449Z,83.62
2022-10-05T15:35:38.232Z,84.00
2022-10-05T15:38:17.667Z,83.51
2022-10-05T15:40:49.349Z,83.62
2022-10-05T15:43:20.073Z,83.80
2022-10-05T15:45:56.411Z,83.71
2022-10-05T15:48:29.009Z,83.52
2022-10-05T15:51:01.929Z,83.88
2022-10-05T15:53:37.990Z,83.95
2022-10-05T15:56:07.392Z,83.44
2022-10-05T15:58:47.573Z,83.45
2022-10-05T16:01:19.977Z,83.49
2022-10-05T16:03:52.204Z,83.62
2022-10-05T16:06:48.813Z,83.32
2022-10-05T16:09:27.425Z,83.49
2022-10-05T16:12:02.213Z,84.15
2022-10-05T16:14:38.771Z,83.51
2022-10-05T16:17:20.488Z,83.78
2022-10-05T16:19:58.712Z,83.46
2022-10-05T16:22:31.924Z,83.69
2022-10-05T16:25:08.683Z,83.57
2022-10-05T16:27:46.168Z,83.49
2022-10-05T16:30:18.024Z,83.52
2022-10-05T16:32:54.302Z,83.38
2022-10-05T16:35:30.057Z,83.81
2022-10-05T16:38:07.964Z,83.40
2022-10-05T16:40:44.044Z,83.26
2022-10-05T16:43:21.547Z,83.87
2022-10-05T16:45:59.426Z,84.46
2022-10-05T16:48:32.065Z,84.39
2022-10-05T16:51:13.498Z,84.79
2022-10-05T16:53:43.432Z,84.74
2022-10-05T16:56:14.152Z,84.89
2022-10-05T16:58:54.492Z,84.54
2022-10-05T17:01:31.696Z,84.92
2022-10-05T17:04:13.152Z,84.01
2022-10-05T17:06:50.815Z,83.57
2022-10-05T17:09:29.992Z,83.65
2022-10-05T17:12:11.384Z,84.12
2022-10-05T17:14:43.209Z,84.53
2022-10-05T17:17:27.676Z,84.63
2022-10-05T17:20:06.522Z,84.99
2022-10-05T17:22:39.706Z,85.81
2022-10-05T17:25:14.279Z,85.01
2022-10-05T17:27:52.152Z,84.93
2022-10-05T17:30:24.206Z,85.16
2022-10-05T17:32:57.191Z,84.24
2022-10-05T17:36:17.997Z,83.17
2022-10-05T17:38:48.256Z,82.88
2022-10-05T17:41:21.677Z,82.49
2022-10-05T17:44:32.316Z,82.26
2022-10-05T17:47:00.789Z,82.30
2022-10-05T17:50:14.939Z,82.18
2022-10-05T17:53:03.878Z,82.30
2022-10-05T17:55:44.010Z,82.90
2022-10-05T17:59:00.496Z,82.60
2022-10-05T18:01:30.163Z,83.35
2022-10-05T18:04:30.364Z,83.95
2022-10-05T18:07:04.486Z,83.63
2022-10-05T18:09:52.349Z,83.95
2022-10-05T18:12:47.901Z,83.99
2022-10-05T18:15:48.484Z,84.25
2022-10-05T18:18:58.490Z,84.50
2022-10-05T18:21:35.640Z,84.67
2022-10-05T18:24:17.220Z,84.88
2022-10-05T18:26:54.485Z,85.74
2022-10-05T18:29:53.381Z,86.38
2022-10-05T18:32:25.317Z,87.44
2022-10-05T18:35:01.992Z,86.89
2022-10-05T18:37:40.003Z,87.42
2022-10-05T18:40:21.820Z,87.57
2022-10-05T18:42:54.661Z,86.73
2022-10-05T18:45:25.109Z,86.74
2022-10-05T18:48:04.357Z,86.66
2022-10-05T18:50:35.162Z,85.87
2022-10-05T18:53:15.560Z,85.99
2022-10-05T18:55:46.266Z,86.19
2022-10-05T18:58:19.007Z,87.41
2022-10-05T19:01:00.037Z,88.03
2022-10-05T19:03:30.565Z,88.42
2022-10-05T19:06:12.865Z,89.44
2022-10-05T19:08:49.548Z,89.23
2022-10-05T19:11:22.936Z,89.25
2022-10-05T19:13:59.576Z,88.76
2022-10-05T19:16:40.094Z,88.85
2022-10-05T19:19:23.994Z,87.93
2022-10-05T19:21:59.536Z,86.79
2022-10-05T19:24:40.625Z,88.42
2022-10-05T19:27:12.899Z,88.46
2022-10-05T19:30:07.654Z,88.41
2022-10-05T19:32:45.840Z,87.65
2022-10-05T19:35:21.541Z,87.67
2022-10-05T19:37:57.148Z,88.06
2022-10-05T19:40:29.156Z,87.71
2022-10-05T19:43:06.638Z,87.20
2022-10-05T19:45:39.642Z,87.47
2022-10-05T19:48:16.065Z,88.38
2022-10-05T19:50:54.508Z,88.74
2022-10-05T19:53:26.172Z,88.82
2022-10-05T19:55:55.312Z,88.91
2022-10-05T19:58:25.796Z,88.99
2022-10-05T20:00:57.661Z,88.87
2022-10-05T20:03:29.038Z,88.87
2022-10-05T20:05:58.458Z,88.64
2022-10-05T20:08:27.629Z,88.26
2022-10-05T20:11:10.705Z,88.84
2022-10-05T20:13:39.879Z,88.53
2022-10-05T20:16:37.745Z,88.29
2022-10-05T20:19:23.627Z,88.45
2022-10-05T20:21:52.720Z,88.90
2022-10-05T20:24:22.227Z,88.49
2022-10-05T20:27:02.924Z,88.50
2022-10-05T20:29:31.740Z,88.65
2022-10-05T20:32:03.463Z,88.67
2022-10-05T20:34:32.855Z,88.68
2022-10-05T20:37:00.485Z,87.93
2022-10-05T20:39:28.139Z,88.84
2022-10-05T20:41:55.790Z,88.71
2022-10-05T20:44:23.425Z,88.21
2022-10-05T20:46:52.716Z,88.23
2022-10-05T20:49:22.704Z,88.46
2022-10-05T20:51:50.413Z,88.15
2022-10-05T20:54:19.197Z,88.52
2022-10-05T20:56:47.055Z,87.98
2022-10-05T20:59:15.135Z,88.22
2022-10-05T21:01:47.809Z,88.62
2022-10-05T21:04:16.523Z,88.69
2022-10-05T21:06:45.638Z,88.39
2022-10-05T21:09:14.709Z,88.11
2022-10-05T21:11:42.483Z,88.29
2022-10-05T21:14:10.697Z,88.29
2022-10-05T21:16:40.686Z,89.08
2022-10-05T21:19:09.726Z,88.84
2022-10-05T21:21:37.699Z,88.46
2022-10-05T21:24:07.389Z,88.21
2022-10-05T21:26:36.955Z,88.63
2022-10-05T21:29:12.115Z,88.81
2022-10-05T21:31:40.525Z,88.76
2022-10-05T21:34:08.565Z,88.95
2022-10-05T21:36:36.385Z,88.61
2022-10-05T21:39:04.996Z,88.34
2022-10-05T21:41:33.989Z,88.37
2022-10-05T21:44:03.466Z,89.19
2022-10-05T21:46:31.514Z,88.71
2022-10-05T21:48:59.156Z,88.55
2022-10-05T21:51:27.555Z,89.22
2022-10-05T21:53:58.061Z,88.99
2022-10-05T21:56:29.335Z,88.25
2022-10-05T21:58:58.798Z,89.46
2022-10-05T22:01:27.093Z,89.14
2022-10-05T22:03:54.996Z,89.34
2022-10-05T22:06:22.643Z,89.06
2022-10-05T22:08:50.303Z,89.13
2022-10-05T22:11:18.581Z,88.12
2022-10-05T22:13:47.783Z,88.22
2022-10-05T22:16:18.182Z,88.33
2022-10-05T22:18:46.323Z,88.20
2022-10-05T22:21:15.062Z,87.80
2022-10-05T22:23:44.407Z,88.52
2022-10-05T22:26:14.536Z,88.54
2022-10-05T22:28:42.561Z,88.44
2022-10-05T22:31:11.517Z,88.29
2022-10-05T22:33:41.078Z,88.18
2022-10-05T22:36:09.807Z,88.20
2022-10-05T22:38:37.569Z,88.41
2022-10-05T22:41:05.337Z,88.76
2022-10-05T22:43:33.333Z,88.03
2022-10-05T22:46:02.973Z,87.80
2022-10-05T22:48:30.972Z,88.47
2022-10-05T22:51:00.176Z,88.25
2022-10-05T22:53:29.925Z,87.88
2022-10-05T22:55:57.799Z,87.97
2022-10-05T22:58:26.235Z,88.10
2022-10-05T23:00:58.457Z,87.91
2022-10-05T23:03:27.059Z,87.34
2022-10-05T23:05:57.651Z,87.19
2022-10-05T23:08:27.578Z,87.79
2022-10-05T23:10:55.451Z,87.86
2022-10-05T23:13:23.304Z,88.21
2022-10-05T23:15:51.022Z,87.93
2022-10-05T23:18:18.683Z,87.94
2022-10-05T23:20:46.348Z,88.27
2022-10-05T23:23:14.013Z,88.23
2022-10-05T23:25:43.013Z,88.24
2022-10-05T23:28:10.695Z,88.00
2022-10-05T23:30:38.355Z,88.27
2022-10-05T23:33:06.006Z,88.24
2022-10-05T23:35:33.651Z,87.80
2022-10-05T23:38:03.065Z,87.97
2022-10-05T23:40:30.824Z,88.04
2022-10-05T23:43:00.748Z,88.01
2022-10-05T23:45:28.447Z,88.58
2022-10-05T23:47:56.097Z,90.10
2022-10-05T23:50:24.992Z,91.89
2022-10-05T23:52:52.632Z,91.85
2022-10-05T23:55:20.310Z,91.63
2022-10-05T23:57:47.971Z,91.21
